createdAt,value
2023-02-23T00:02:08.515Z,36.95
2023-02-23T00:04:36.917Z,36.40
2023-02-23T00:07:06.517Z,35.17
2023-02-23T00:09:37.059Z,37.47
2023-02-23T00:12:10.403Z,37.65
2023-02-23T00:14:38.775Z,39.95
2023-02-23T00:17:14.662Z,38.30
2023-02-23T00:19:44.079Z,33.60
2023-02-23T00:22:12.946Z,37.00
2023-02-23T00:24:42.512Z,36.55
2023-02-23T00:27:10.555Z,35.63
2023-02-23T00:29:40.823Z,36.05
2023-02-23T00:32:08.590Z,36.72
2023-02-23T00:34:40.730Z,36.63
2023-02-23T00:37:09.342Z,37.70
2023-02-23T00:39:36.700Z,36.72
2023-02-23T00:42:06.772Z,38.63
2023-02-23T00:44:35.238Z,37.30
2023-02-23T00:47:07.409Z,38.70
2023-02-23T00:49:35.916Z,37.50
2023-02-23T00:52:05.234Z,38.25
2023-02-23T00:54:32.784Z,38.10
2023-02-23T00:57:00.076Z,39.83
2023-02-23T00:59:29.658Z,38.90
2023-02-23T01:01:57.765Z,39.08
2023-02-23T01:04:25.243Z,38.50
2023-02-23T01:06:52.575Z,36.13
2023-02-23T01:09:28.789Z,38.85
2023-02-23T01:11:57.373Z,40.38
2023-02-23T01:14:25.185Z,38.50
2023-02-23T01:16:52.594Z,40.17
2023-02-23T01:19:20.590Z,39.70
2023-02-23T01:21:52.035Z,40.67
2023-02-23T01:24:19.306Z,39.67
2023-02-23T01:26:46.663Z,37.90
2023-02-23T01:29:17.714Z,37.88
2023-02-23T01:31:48.005Z,38.50
2023-02-23T01:34:19.759Z,39.20
2023-02-23T01:36:47.367Z,38.95
2023-02-23T01:39:17.637Z,38.55
2023-02-23T01:41:45.489Z,39.47
2023-02-23T01:44:12.855Z,40.17
2023-02-23T01:46:46.050Z,40.92
2023-02-23T01:49:23.456Z,40.53
2023-02-23T01:52:08.097Z,42.00
2023-02-23T01:54:38.729Z,40.22
2023-02-23T01:57:10.816Z,42.38
2023-02-23T01:59:42.598Z,41.78
2023-02-23T02:02:10.552Z,42.13
2023-02-23T02:04:44.710Z,39.33
2023-02-23T02:07:14.882Z,40.15
2023-02-23T02:10:04.451Z,41.35
2023-02-23T02:12:31.764Z,39.15
2023-02-23T02:15:00.756Z,39.33
2023-02-23T02:17:46.724Z,40.58
2023-02-23T02:20:39.416Z,37.53
2023-02-23T02:23:36.577Z,40.67
2023-02-23T02:26:34.348Z,40.55
2023-02-23T02:29:32.504Z,43.30
2023-02-23T02:32:11.312Z,40.47
2023-02-23T02:34:59.028Z,41.63
2023-02-23T02:38:24.883Z,38.55
2023-02-23T02:40:57.207Z,42.13
2023-02-23T02:43:52.294Z,42.58
2023-02-23T02:46:27.444Z,42.40
2023-02-23T02:49:38.944Z,44.45
2023-02-23T02:52:40.286Z,45.67
2023-02-23T02:55:23.970Z,44.92
2023-02-23T02:57:56.621Z,45.53
2023-02-23T03:00:50.062Z,46.90
2023-02-23T03:03:51.415Z,46.45
2023-02-23T03:07:11.769Z,44.13
2023-02-23T03:10:15.400Z,45.55
2023-02-23T03:13:26.957Z,45.83
2023-02-23T03:16:32.674Z,45.53
2023-02-23T03:19:45.393Z,43.88
2023-02-23T03:22:53.258Z,48.28
2023-02-23T03:25:52.137Z,44.10
2023-02-23T03:28:43.724Z,43.70
2023-02-23T03:31:46.682Z,45.05
2023-02-23T03:35:01.143Z,46.22
2023-02-23T03:37:54.925Z,42.08
2023-02-23T03:40:45.130Z,46.92
2023-02-23T03:43:37.517Z,46.92
2023-02-23T03:46:28.465Z,47.22
2023-02-23T03:49:19.533Z,44.92
2023-02-23T03:54:59.739Z,47.17
2023-02-23T03:57:49.335Z,47.88
2023-02-23T04:00:48.849Z,46.30
2023-02-23T04:03:37.362Z,46.40
2023-02-23T04:06:29.126Z,47.80
2023-02-23T04:09:20.003Z,49.67
2023-02-23T04:14:46.224Z,35.30
2023-02-23T04:17:15.824Z,49.30
2023-02-23T04:19:54.096Z,49.35
2023-02-23T04:22:22.699Z,47.58
2023-02-23T04:24:51.149Z,48.40
2023-02-23T04:27:18.718Z,46.97
2023-02-23T04:29:46.542Z,48.28
2023-02-23T04:32:18.247Z,46.83
2023-02-23T04:34:46.482Z,46.80
2023-02-23T04:37:14.343Z,45.50
2023-02-23T04:39:43.047Z,45.28
2023-02-23T04:42:10.839Z,44.35
2023-02-23T04:44:39.561Z,40.80
2023-02-23T04:47:06.841Z,43.28
2023-02-23T04:49:34.578Z,42.08
2023-02-23T04:52:02.022Z,42.40
2023-02-23T04:54:29.693Z,41.25
2023-02-23T04:56:57.143Z,40.50
2023-02-23T04:59:24.687Z,40.58
2023-02-23T05:01:52.048Z,36.70
2023-02-23T05:04:19.383Z,37.75
2023-02-23T05:06:48.003Z,39.67
2023-02-23T05:09:15.324Z,38.75
2023-02-23T05:11:42.804Z,37.78
2023-02-23T05:14:12.967Z,38.60
2023-02-23T05:16:40.414Z,37.00
2023-02-23T05:19:08.105Z,35.55
2023-02-23T05:21:35.383Z,35.90
2023-02-23T05:24:05.313Z,33.00
2023-02-23T05:26:32.685Z,35.85
2023-02-23T05:29:00.441Z,33.20
2023-02-23T05:31:28.898Z,30.85
2023-02-23T05:33:56.296Z,32.03
2023-02-23T05:36:23.877Z,30.63
2023-02-23T05:38:51.315Z,32.90
2023-02-23T05:41:23.303Z,30.42
2023-02-23T05:46:24.825Z,29.70
2023-02-23T05:48:57.723Z,29.23
2023-02-23T05:51:28.518Z,32.05
2023-02-23T05:53:56.042Z,30.92
2023-02-23T05:56:24.975Z,30.20
2023-02-23T05:59:01.356Z,28.95
2023-02-23T06:01:29.482Z,29.55
2023-02-23T06:03:59.676Z,31.45
2023-02-23T06:06:28.957Z,31.67
2023-02-23T06:08:56.639Z,30.25
2023-02-23T06:11:24.155Z,30.08
2023-02-23T06:13:52.477Z,29.15
2023-02-23T06:16:21.236Z,31.27
2023-02-23T06:18:51.498Z,29.70
2023-02-23T06:21:19.104Z,31.63
2023-02-23T06:23:48.083Z,30.42
2023-02-23T06:26:15.411Z,30.65
2023-02-23T06:28:42.906Z,31.27
2023-02-23T06:31:10.652Z,28.77
2023-02-23T06:33:37.977Z,30.58
2023-02-23T06:36:06.419Z,27.67
2023-02-23T06:38:33.731Z,29.05
2023-02-23T06:41:11.694Z,27.92
2023-02-23T06:43:39.634Z,30.33
2023-02-23T06:46:07.790Z,30.13
2023-02-23T06:48:35.947Z,29.35
2023-02-23T06:51:03.553Z,33.35
2023-02-23T06:53:31.532Z,30.23
2023-02-23T06:55:59.057Z,28.98
2023-02-23T06:58:26.656Z,25.10
2023-02-23T07:00:57.054Z,29.50
2023-02-23T07:03:24.609Z,29.83
2023-02-23T07:05:52.705Z,27.45
2023-02-23T07:08:20.074Z,29.50
2023-02-23T07:10:47.588Z,26.75
2023-02-23T07:13:14.890Z,26.95
2023-02-23T07:15:42.724Z,25.75
2023-02-23T07:18:10.130Z,23.25
2023-02-23T07:20:37.774Z,24.73
2023-02-23T07:23:05.260Z,24.02
2023-02-23T07:25:32.678Z,24.35
2023-02-23T07:28:00.316Z,24.08
2023-02-23T07:30:27.668Z,23.33
2023-02-23T07:32:55.004Z,24.95
2023-02-23T07:35:22.366Z,23.23
2023-02-23T07:37:49.734Z,21.95
2023-02-23T07:40:17.586Z,22.30
2023-02-23T07:42:45.806Z,23.73
2023-02-23T07:45:13.153Z,22.52
2023-02-23T07:47:42.702Z,22.20
2023-02-23T07:50:12.694Z,21.70
2023-02-23T07:52:42.193Z,21.48
2023-02-23T07:55:11.766Z,23.60
2023-02-23T07:57:39.635Z,23.67
2023-02-23T08:00:07.537Z,21.08
2023-02-23T08:02:40.467Z,21.55
2023-02-23T08:05:08.259Z,22.17
2023-02-23T08:07:35.501Z,22.77
2023-02-23T08:10:02.744Z,21.48
2023-02-23T08:12:31.587Z,21.17
2023-02-23T08:14:58.881Z,19.92
2023-02-23T08:17:26.500Z,20.50
2023-02-23T08:19:53.875Z,20.10
2023-02-23T08:22:23.006Z,21.60
2023-02-23T08:24:50.744Z,21.20
2023-02-23T08:27:18.774Z,22.77
2023-02-23T08:29:46.989Z,20.95
2023-02-23T08:32:15.821Z,19.92
2023-02-23T08:34:44.230Z,20.13
2023-02-23T08:37:11.910Z,21.10
2023-02-23T08:39:43.345Z,21.92
2023-02-23T08:42:11.146Z,23.45
2023-02-23T08:44:40.444Z,22.25
2023-02-23T08:47:07.730Z,22.88
2023-02-23T08:49:35.081Z,22.30
2023-02-23T08:52:02.371Z,22.67
2023-02-23T08:54:30.594Z,24.35
2023-02-23T08:56:58.356Z,22.88
2023-02-23T08:59:27.139Z,25.80
2023-02-23T09:01:54.624Z,25.52
2023-02-23T09:04:22.190Z,24.67
2023-02-23T09:06:53.225Z,25.02
2023-02-23T09:09:20.602Z,25.98
2023-02-23T09:11:47.930Z,25.48
2023-02-23T09:14:15.224Z,26.77
2023-02-23T09:16:43.538Z,27.92
2023-02-23T09:19:11.159Z,28.80
2023-02-23T09:21:40.552Z,26.15
2023-02-23T09:24:07.758Z,28.77
2023-02-23T09:26:36.017Z,29.70
2023-02-23T09:29:03.435Z,28.98
2023-02-23T09:31:30.756Z,28.95
2023-02-23T09:34:00.418Z,31.17
2023-02-23T09:36:29.013Z,31.42
2023-02-23T09:38:58.161Z,30.05
2023-02-23T09:41:25.311Z,28.85
2023-02-23T09:44:04.539Z,31.02
2023-02-23T09:46:56.034Z,30.52
2023-02-23T09:49:28.639Z,31.80
2023-02-23T09:51:59.001Z,29.52
2023-02-23T09:54:32.831Z,29.25
2023-02-23T09:57:10.769Z,30.25
2023-02-23T09:59:39.914Z,30.52
2023-02-23T10:02:20.997Z,29.95
2023-02-23T10:05:00.940Z,30.77
2023-02-23T10:07:58.268Z,29.20
2023-02-23T10:10:51.161Z,31.85
2023-02-23T10:13:21.653Z,30.83
2023-02-23T10:15:49.296Z,30.52
2023-02-23T10:18:17.817Z,31.20
2023-02-23T10:21:06.625Z,31.80
2023-02-23T10:23:37.285Z,30.80
2023-02-23T10:26:08.699Z,29.48
2023-02-23T10:28:37.366Z,29.08
2023-02-23T10:31:25.230Z,27.52
2023-02-23T10:33:55.622Z,28.48
2023-02-23T10:36:35.895Z,26.85
2023-02-23T10:39:07.078Z,26.67
2023-02-23T10:41:37.242Z,24.92
2023-02-23T10:44:17.034Z,24.90
2023-02-23T10:46:49.599Z,22.45
2023-02-23T10:49:22.544Z,21.55
2023-02-23T10:51:55.807Z,20.08
2023-02-23T10:54:43.167Z,19.20
2023-02-23T10:57:18.786Z,20.30
2023-02-23T11:00:01.618Z,21.05
2023-02-23T11:02:35.634Z,21.48
2023-02-23T11:05:04.588Z,21.23
2023-02-23T11:07:34.132Z,21.40
2023-02-23T11:10:27.438Z,20.88
2023-02-23T11:12:54.899Z,21.33
2023-02-23T11:15:35.332Z,21.02
2023-02-23T11:18:07.318Z,19.95
2023-02-23T11:20:42.105Z,23.02
2023-02-23T11:23:14.676Z,20.77
2023-02-23T11:25:45.118Z,20.75
2023-02-23T11:28:26.276Z,19.73
2023-02-23T11:33:29.812Z,17.95
2023-02-23T11:35:59.914Z,19.08
2023-02-23T11:38:29.676Z,20.13
2023-02-23T11:41:02.587Z,18.60
2023-02-23T11:43:30.443Z,18.92
2023-02-23T11:46:00.981Z,16.58
2023-02-23T11:51:10.327Z,18.02
2023-02-23T11:53:44.903Z,20.77
2023-02-23T11:56:19.974Z,20.60
2023-02-23T11:58:51.194Z,21.42
2023-02-23T12:01:23.691Z,22.48
2023-02-23T12:03:57.117Z,24.10
2023-02-23T12:06:33.261Z,25.00
2023-02-23T12:09:25.195Z,26.35
2023-02-23T12:12:04.702Z,27.20
2023-02-23T12:14:49.808Z,26.95
2023-02-23T12:17:27.498Z,26.75
2023-02-23T12:20:16.596Z,26.90
2023-02-23T12:22:51.401Z,31.83
2023-02-23T12:25:34.194Z,33.55
2023-02-23T12:28:19.681Z,35.17
2023-02-23T12:30:55.343Z,32.13
2023-02-23T12:33:56.159Z,33.95
2023-02-23T12:36:47.855Z,36.40
2023-02-23T12:39:33.352Z,33.25
2023-02-23T12:42:12.873Z,34.78
2023-02-23T12:44:44.516Z,33.08
2023-02-23T12:47:40.628Z,31.13
2023-02-23T12:50:26.654Z,34.88
2023-02-23T12:52:58.623Z,28.85
2023-02-23T12:55:57.956Z,21.98
2023-02-23T12:58:35.944Z,6.68
2023-02-23T13:01:12.828Z,5.38
2023-02-23T13:04:09.755Z,4.70
2023-02-23T13:06:55.684Z,6.45
2023-02-23T13:09:40.265Z,4.95
2023-02-23T13:12:10.677Z,6.57
2023-02-23T13:14:51.004Z,7.07
2023-02-23T13:17:47.596Z,5.95
2023-02-23T13:20:25.569Z,8.10
2023-02-23T13:23:22.129Z,8.32
2023-02-23T13:26:10.871Z,8.20
2023-02-23T13:29:14.900Z,7.82
2023-02-23T13:31:44.194Z,7.45
2023-02-23T13:34:17.289Z,6.75
2023-02-23T13:36:45.997Z,6.85
2023-02-23T13:39:35.137Z,7.15
2023-02-23T13:42:10.072Z,8.18
2023-02-23T13:44:48.219Z,7.90
2023-02-23T13:47:33.804Z,7.82
2023-02-23T13:50:16.503Z,7.45
2023-02-23T13:52:46.497Z,6.13
2023-02-23T13:55:25.763Z,7.22
2023-02-23T13:58:05.719Z,6.18
2023-02-23T14:00:34.948Z,6.40
2023-02-23T14:03:06.187Z,6.38
2023-02-23T14:05:43.624Z,5.82
2023-02-23T14:08:33.487Z,6.68
2023-02-23T14:11:01.516Z,5.57
2023-02-23T14:13:35.490Z,6.50
2023-02-23T14:16:10.610Z,8.50
2023-02-23T14:18:58.519Z,6.25
2023-02-23T14:21:43.509Z,5.88
2023-02-23T14:24:19.445Z,4.97
2023-02-23T14:27:38.555Z,6.88
2023-02-23T14:30:11.045Z,5.50
2023-02-23T14:32:42.421Z,5.97
2023-02-23T14:35:33.776Z,5.35
2023-02-23T14:38:24.924Z,5.18
2023-02-23T14:40:56.342Z,6.10
2023-02-23T14:43:36.632Z,4.88
2023-02-23T14:46:08.580Z,5.50
2023-02-23T14:48:58.558Z,4.75
2023-02-23T14:51:39.741Z,6.33
2023-02-23T14:54:29.337Z,4.85
2023-02-23T14:56:58.997Z,4.70
2023-02-23T14:59:48.172Z,4.75
2023-02-23T15:02:24.914Z,5.82
2023-02-23T15:04:52.842Z,4.63
2023-02-23T15:07:35.907Z,4.70
2023-02-23T15:10:18.765Z,4.20
2023-02-23T15:12:47.667Z,5.00
2023-02-23T15:15:18.830Z,5.07
2023-02-23T15:17:52.246Z,4.78
2023-02-23T15:20:28.800Z,4.70
2023-02-23T15:22:59.263Z,3.75
2023-02-23T15:25:38.692Z,4.30
2023-02-23T15:28:26.420Z,3.90
2023-02-23T15:30:59.988Z,3.90
2023-02-23T15:33:30.443Z,3.83
2023-02-23T15:36:14.665Z,4.15
2023-02-23T15:38:50.663Z,4.10
2023-02-23T15:41:28.813Z,3.97
2023-02-23T15:44:06.690Z,4.43
2023-02-23T15:46:35.007Z,4.82
2023-02-23T15:49:03.613Z,3.85
2023-02-23T15:51:31.233Z,3.55
2023-02-23T15:54:01.420Z,3.78
2023-02-23T15:56:34.878Z,3.13
2023-02-23T15:59:11.172Z,4.22
2023-02-23T16:01:44.153Z,4.97
2023-02-23T16:04:19.015Z,4.28
2023-02-23T16:07:07.768Z,3.45
2023-02-23T16:09:38.653Z,3.70
2023-02-23T16:12:12.633Z,3.33
2023-02-23T16:15:00.775Z,3.33
2023-02-23T16:17:30.971Z,3.88
2023-02-23T16:20:14.081Z,3.92
2023-02-23T16:22:49.571Z,3.38
2023-02-23T16:25:18.879Z,3.65
2023-02-23T16:27:55.156Z,3.78
2023-02-23T16:30:44.309Z,3.83
2023-02-23T16:33:19.889Z,4.25
2023-02-23T16:35:50.156Z,3.25
2023-02-23T16:38:36.360Z,2.67
2023-02-23T16:41:04.809Z,3.03
2023-02-23T16:43:35.985Z,3.17
2023-02-23T16:46:03.518Z,2.97
2023-02-23T16:48:30.804Z,3.47
2023-02-23T16:50:58.052Z,3.00
2023-02-23T16:53:25.629Z,2.40
2023-02-23T16:55:55.498Z,4.15
2023-02-23T16:58:26.016Z,2.65
2023-02-23T17:00:54.259Z,3.58
2023-02-23T17:03:25.093Z,2.70
2023-02-23T17:08:20.326Z,2.97
2023-02-23T17:10:51.295Z,2.50
2023-02-23T17:13:21.886Z,3.25
2023-02-23T17:15:56.326Z,3.05
2023-02-23T17:18:28.860Z,3.35
2023-02-23T17:20:58.789Z,2.30
2023-02-23T17:23:40.760Z,2.13
2023-02-23T17:26:12.352Z,3.13
2023-02-23T17:28:41.024Z,2.30
2023-02-23T17:31:10.122Z,2.22
2023-02-23T17:33:41.293Z,2.08
2023-02-23T17:36:12.191Z,2.42
2023-02-23T17:42:40.227Z,3.00
2023-02-23T17:45:08.873Z,2.33
2023-02-23T17:47:39.859Z,2.60
2023-02-23T17:50:08.010Z,2.42
2023-02-23T17:52:36.179Z,2.53
2023-02-23T17:55:03.967Z,2.58
2023-02-23T17:57:31.343Z,2.78
2023-02-23T17:59:59.061Z,3.08
2023-02-23T18:02:26.928Z,1.92
2023-02-23T18:05:00.326Z,2.35
2023-02-23T18:07:31.107Z,2.70
2023-02-23T18:10:01.844Z,4.30
2023-02-23T18:12:29.843Z,5.88
2023-02-23T18:14:58.152Z,4.50
2023-02-23T18:17:25.621Z,5.55
2023-02-23T18:19:53.052Z,5.43
2023-02-23T18:22:20.344Z,6.38
2023-02-23T18:24:47.594Z,6.10
2023-02-23T18:27:15.337Z,6.15
2023-02-23T18:29:42.596Z,6.55
2023-02-23T18:32:11.475Z,5.68
2023-02-23T18:34:38.965Z,5.00
2023-02-23T18:37:09.890Z,4.70
2023-02-23T18:39:37.431Z,4.60
2023-02-23T18:42:05.117Z,4.38
2023-02-23T18:44:35.245Z,4.05
2023-02-23T18:47:02.722Z,4.80
2023-02-23T18:49:30.130Z,3.92
2023-02-23T18:51:58.217Z,3.53
2023-02-23T18:54:26.148Z,2.83
2023-02-23T18:56:55.978Z,2.45
2023-02-23T18:59:23.279Z,1.60
2023-02-23T19:01:52.591Z,3.10
2023-02-23T19:04:20.210Z,2.45
2023-02-23T19:06:48.172Z,2.80
2023-02-23T19:09:21.591Z,3.08
2023-02-23T19:11:51.202Z,3.20
2023-02-23T19:14:23.889Z,3.28
2023-02-23T19:16:56.568Z,4.68
2023-02-23T19:19:24.301Z,5.85
2023-02-23T19:21:51.730Z,8.93
2023-02-23T19:24:20.683Z,6.10
2023-02-23T19:26:48.000Z,5.65
2023-02-23T19:29:16.925Z,6.10
2023-02-23T19:31:44.511Z,6.65
2023-02-23T19:34:12.582Z,8.57
2023-02-23T19:36:40.680Z,6.82
2023-02-23T19:39:11.136Z,6.05
2023-02-23T19:41:40.034Z,3.13
2023-02-23T19:44:07.627Z,2.33
2023-02-23T19:46:37.017Z,4.93
2023-02-23T19:49:04.888Z,5.18
2023-02-23T19:51:33.638Z,3.08
2023-02-23T19:54:01.054Z,2.00
2023-02-23T19:56:29.394Z,2.00
2023-02-23T19:58:57.786Z,2.40
2023-02-23T20:01:27.688Z,2.13
2023-02-23T20:03:56.272Z,2.15
2023-02-23T20:06:27.516Z,2.05
2023-02-23T20:08:55.649Z,2.05
2023-02-23T20:11:24.095Z,1.80
2023-02-23T20:13:53.064Z,2.28
2023-02-23T20:16:21.150Z,2.17
2023-02-23T20:18:48.521Z,2.63
2023-02-23T20:21:28.515Z,3.30
2023-02-23T20:23:56.529Z,3.15
2023-02-23T20:26:27.424Z,3.03
2023-02-23T20:28:56.257Z,2.28
2023-02-23T20:31:27.320Z,2.70
2023-02-23T20:33:56.626Z,3.10
2023-02-23T20:36:25.201Z,4.22
2023-02-23T20:38:52.628Z,4.15
2023-02-23T20:41:20.971Z,3.78
2023-02-23T20:43:48.446Z,4.13
2023-02-23T20:46:17.705Z,3.08
2023-02-23T20:48:45.407Z,3.15
2023-02-23T20:51:18.799Z,2.85
2023-02-23T20:53:48.211Z,2.00
2023-02-23T20:56:18.473Z,2.50
2023-02-23T20:58:46.158Z,2.10
2023-02-23T21:01:22.725Z,2.08
2023-02-23T21:03:51.718Z,3.17
2023-02-23T21:06:20.536Z,2.70
2023-02-23T21:08:49.013Z,2.33
2023-02-23T21:11:20.228Z,2.50
2023-02-23T21:13:47.846Z,2.33
2023-02-23T21:16:18.545Z,2.08
2023-02-23T21:21:15.740Z,1.83
2023-02-23T21:23:44.798Z,1.30
2023-02-23T21:26:16.425Z,1.35
2023-02-23T21:28:45.244Z,1.63
2023-02-23T21:31:14.362Z,2.17
2023-02-23T21:33:43.564Z,1.85
2023-02-23T21:36:12.755Z,1.98
2023-02-23T21:38:42.905Z,2.20
2023-02-23T21:41:12.342Z,2.38
2023-02-23T21:43:43.471Z,2.28
2023-02-23T21:46:16.774Z,1.98
2023-02-23T21:48:44.346Z,1.90
2023-02-23T21:51:14.219Z,1.67
2023-02-23T21:53:43.932Z,1.57
2023-02-23T21:56:16.483Z,1.50
2023-02-23T21:58:54.486Z,1.60
2023-02-23T22:01:24.919Z,1.30
2023-02-23T22:03:54.797Z,1.80
2023-02-23T22:06:25.303Z,1.40
2023-02-23T22:08:53.587Z,2.28
2023-02-23T22:11:26.966Z,1.70
2023-02-23T22:14:00.241Z,1.58
2023-02-23T22:16:32.857Z,1.65
2023-02-23T22:19:04.424Z,2.20
2023-02-23T22:21:35.123Z,1.55
2023-02-23T22:24:05.402Z,2.00
2023-02-23T22:26:38.449Z,1.70
2023-02-23T22:29:06.981Z,5.20
2023-02-23T22:31:37.443Z,6.40
2023-02-23T22:34:06.330Z,2.70
2023-02-23T22:36:34.847Z,1.40
2023-02-23T22:39:03.977Z,1.10
2023-02-23T22:41:31.356Z,1.25
2023-02-23T22:43:59.093Z,1.35
2023-02-23T22:46:26.939Z,1.77
2023-02-23T22:48:54.474Z,1.08
2023-02-23T22:51:22.509Z,1.40
2023-02-23T22:53:50.055Z,1.48
2023-02-23T22:56:17.594Z,1.30
2023-02-23T22:58:47.999Z,1.48
2023-02-23T23:01:17.405Z,1.30
2023-02-23T23:03:46.626Z,1.80
2023-02-23T23:06:17.214Z,1.42
2023-02-23T23:08:45.919Z,1.42
2023-02-23T23:11:15.925Z,1.65
2023-02-23T23:13:46.558Z,1.90
2023-02-23T23:16:30.554Z,1.70
2023-02-23T23:19:02.869Z,1.50
2023-02-23T23:21:32.957Z,1.65
2023-02-23T23:26:29.866Z,1.23
2023-02-23T23:28:59.650Z,1.27
2023-02-23T23:31:29.715Z,1.20
2023-02-23T23:34:02.624Z,1.15
2023-02-23T23:36:53.263Z,1.52
2023-02-23T23:41:49.978Z,2.13
2023-02-23T23:44:19.841Z,1.33
2023-02-23T23:46:48.379Z,1.37
2023-02-23T23:49:18.414Z,2.45
2023-02-23T23:51:51.034Z,3.75
2023-02-23T23:54:29.721Z,1.85
2023-02-23T23:56:58.194Z,1.85
2023-02-23T23:59:26.888Z,1.45
